Time;durP1;ratioP1;P1;durP2;ratioP2;P2;SDS_P1;SDS_P2;PMS_P1;PMS_P2;Temp;Humidity;BMP_temperature;BMP_pressure;BME280_temperature;BME280_humidity;BME280_pressure;Samples;Min_cycle;Max_cycle;Signal;HPM_P1;HPM_P2
2023/02/04 00:00:07;;;;;;;2.63;1.33;;;;;;;;;;5071036;28;20468;-80
2023/02/04 00:02:32;;;;;;;2.67;1.00;;;;;;;;;;5069257;28;20095;-81
2023/02/04 00:04:58;;;;;;;3.72;1.00;;;;;;;;;;5070085;28;20103;-81
2023/02/04 00:07:23;;;;;;;8.20;1.20;;;;;;;;;;5071096;28;20464;-82
2023/02/04 00:09:48;;;;;;;4.15;1.55;;;;;;;;;;5070841;28;20024;-81
2023/02/04 00:12:14;;;;;;;6.28;1.83;;;;;;;;;;5071107;28;20070;-81
2023/02/04 00:14:39;;;;;;;8.18;1.33;;;;;;;;;;5069714;28;20085;-80
2023/02/04 00:17:06;;;;;;;3.33;1.10;;;;;;;;;;5070193;28;20012;-81
2023/02/04 00:19:32;;;;;;;1.65;0.70;;;;;;;;;;5070357;28;20025;-81
2023/02/04 00:21:57;;;;;;;4.90;0.88;;;;;;;;;;5070883;28;20031;-81
2023/02/04 00:24:22;;;;;;;3.45;1.30;;;;;;;;;;5070170;28;20023;-81
2023/02/04 00:26:47;;;;;;;1.60;0.80;;;;;;;;;;5071117;28;20032;-81
2023/02/04 00:29:12;;;;;;;3.97;0.80;;;;;;;;;;5070511;28;20428;-81
2023/02/04 00:31:38;;;;;;;7.78;1.50;;;;;;;;;;5070966;28;20017;-81
2023/02/04 00:34:03;;;;;;;3.90;0.85;;;;;;;;;;5070961;28;20040;-81
2023/02/04 00:36:28;;;;;;;7.00;1.65;;;;;;;;;;5067967;28;20028;-81
2023/02/04 00:38:53;;;;;;;7.05;1.08;;;;;;;;;;5070383;28;20107;-81
2023/02/04 00:41:19;;;;;;;3.08;1.30;;;;;;;;;;5071005;28;20020;-81
2023/02/04 00:43:44;;;;;;;5.35;0.85;;;;;;;;;;5071072;28;20517;-81
2023/02/04 00:46:09;;;;;;;5.38;1.30;;;;;;;;;;5070785;28;20164;-80
2023/02/04 00:48:34;;;;;;;2.70;1.10;;;;;;;;;;5067892;28;20020;-80
2023/02/04 00:51:00;;;;;;;6.15;1.92;;;;;;;;;;5070296;28;20054;-81
2023/02/04 00:53:25;;;;;;;2.90;1.10;;;;;;;;;;5069045;28;20092;-81
2023/02/04 00:55:50;;;;;;;2.38;1.02;;;;;;;;;;5070006;28;20013;-81
2023/02/04 00:58:15;;;;;;;2.83;1.15;;;;;;;;;;5068149;28;20016;-81
2023/02/04 01:00:40;;;;;;;2.35;0.98;;;;;;;;;;5070327;28;20506;-81
2023/02/04 01:03:06;;;;;;;4.57;1.08;;;;;;;;;;5074250;28;20042;-81
2023/02/04 01:05:31;;;;;;;9.05;1.58;;;;;;;;;;5074288;28;20467;-81
2023/02/04 01:07:56;;;;;;;1.88;0.60;;;;;;;;;;5073979;28;20016;-81
2023/02/04 01:10:21;;;;;;;4.00;0.70;;;;;;;;;;5071713;28;20028;-80
2023/02/04 01:12:46;;;;;;;4.53;0.77;;;;;;;;;;5074465;28;20376;-81
2023/02/04 01:15:12;;;;;;;2.03;1.00;;;;;;;;;;5073532;28;20486;-81
2023/02/04 01:17:37;;;;;;;1.85;0.73;;;;;;;;;;5072681;28;20024;-81
2023/02/04 01:20:02;;;;;;;3.50;0.85;;;;;;;;;;5072768;28;20545;-81
2023/02/04 01:22:27;;;;;;;1.40;0.60;;;;;;;;;;5073992;28;20062;-81
2023/02/04 01:24:52;;;;;;;4.00;0.90;;;;;;;;;;5073452;28;20468;-81
2023/02/04 01:27:18;;;;;;;1.85;0.80;;;;;;;;;;5071091;28;20021;-80
2023/02/04 01:29:43;;;;;;;3.67;1.05;;;;;;;;;;5072216;28;20063;-81
2023/02/04 01:32:08;;;;;;;1.55;0.70;;;;;;;;;;5073567;28;20009;-81
2023/02/04 01:34:33;;;;;;;5.72;1.45;;;;;;;;;;5073839;28;20119;-81
2023/02/04 01:36:58;;;;;;;5.07;1.10;;;;;;;;;;5073812;28;20022;-81
2023/02/04 01:39:24;;;;;;;2.30;0.90;;;;;;;;;;5072833;28;20025;-81
2023/02/04 01:41:49;;;;;;;3.13;0.70;;;;;;;;;;5071264;28;20368;-81
2023/02/04 01:44:14;;;;;;;1.77;0.70;;;;;;;;;;5072657;28;20074;-81
2023/02/04 01:46:39;;;;;;;7.15;1.20;;;;;;;;;;5061957;28;20058;-81
2023/02/04 01:49:05;;;;;;;6.20;0.95;;;;;;;;;;5071580;28;20024;-81
2023/02/04 01:51:31;;;;;;;3.00;0.93;;;;;;;;;;5071463;28;20114;-81
2023/02/04 01:53:56;;;;;;;3.15;1.25;;;;;;;;;;5072495;28;20036;-81
2023/02/04 01:56:25;;;;;;;5.65;1.02;;;;;;;;;;5072507;28;20036;-81
2023/02/04 01:58:50;;;;;;;5.78;1.17;;;;;;;;;;5071277;28;20039;-81
2023/02/04 02:01:32;;;;;;;2.17;1.10;;;;;;;;;;5071817;28;20032;-81
2023/02/04 02:03:57;;;;;;;2.50;0.93;;;;;;;;;;5072408;28;20036;-81
2023/02/04 02:06:22;;;;;;;1.80;1.05;;;;;;;;;;5073374;28;20028;-81
2023/02/04 02:08:48;;;;;;;5.57;1.63;;;;;;;;;;5071303;28;20048;-81
2023/02/04 02:11:13;;;;;;;1.65;1.13;;;;;;;;;;5072274;28;20009;-81
2023/02/04 02:13:38;;;;;;;4.20;1.40;;;;;;;;;;5071683;28;20067;-80
2023/02/04 02:16:03;;;;;;;4.95;1.10;;;;;;;;;;5072926;28;20027;-81
2023/02/04 02:18:28;;;;;;;2.83;1.27;;;;;;;;;;5072483;28;20070;-81
2023/02/04 02:20:54;;;;;;;3.85;0.90;;;;;;;;;;5072774;28;20024;-80
2023/02/04 02:23:19;;;;;;;2.75;1.77;;;;;;;;;;5071624;28;20028;-81
2023/02/04 02:25:44;;;;;;;10.05;1.15;;;;;;;;;;5070201;28;20392;-81
2023/02/04 02:28:11;;;;;;;5.20;1.30;;;;;;;;;;5072359;28;20024;-81
2023/02/04 02:30:37;;;;;;;1.52;0.82;;;;;;;;;;5072279;28;20029;-81
2023/02/04 02:33:02;;;;;;;3.95;1.15;;;;;;;;;;5072347;28;20043;-81
2023/02/04 02:35:28;;;;;;;2.08;0.98;;;;;;;;;;5072146;28;20456;-81
2023/02/04 02:37:53;;;;;;;1.80;0.68;;;;;;;;;;5068136;28;20032;-81
2023/02/04 02:40:18;;;;;;;4.80;0.95;;;;;;;;;;5068905;28;20456;-81
2023/02/04 02:42:45;;;;;;;2.20;0.73;;;;;;;;;;5072620;28;20016;-81
2023/02/04 02:45:14;;;;;;;4.22;1.02;;;;;;;;;;5063842;28;20123;-81
2023/02/04 02:47:40;;;;;;;4.82;1.10;;;;;;;;;;5067958;28;20024;-81
2023/02/04 02:50:05;;;;;;;2.58;1.27;;;;;;;;;;5072396;28;20023;-80
2023/02/04 02:52:30;;;;;;;3.28;0.93;;;;;;;;;;5072159;28;20020;-80
2023/02/04 02:54:55;;;;;;;4.30;1.92;;;;;;;;;;5072239;28;20024;-81
2023/02/04 02:57:22;;;;;;;2.47;1.20;;;;;;;;;;5070462;28;20016;-80
2023/02/04 02:59:47;;;;;;;4.18;1.17;;;;;;;;;;5070071;28;20103;-81
2023/02/04 03:02:15;;;;;;;3.58;1.10;;;;;;;;;;5070398;28;20466;-81
2023/02/04 03:04:41;;;;;;;2.92;1.17;;;;;;;;;;5072095;28;20043;-81
2023/02/04 03:07:07;;;;;;;2.80;1.27;;;;;;;;;;5070748;28;20013;-80
2023/02/04 03:09:33;;;;;;;6.13;1.30;;;;;;;;;;5070753;28;20459;-81
2023/02/04 03:11:58;;;;;;;5.47;1.33;;;;;;;;;;5070050;28;20066;-81
2023/02/04 03:14:24;;;;;;;6.45;1.92;;;;;;;;;;5071580;28;20108;-81
2023/02/04 03:16:50;;;;;;;2.15;1.50;;;;;;;;;;5072110;28;20020;-81
2023/02/04 03:19:15;;;;;;;5.53;1.27;;;;;;;;;;5070246;28;20472;-81
2023/02/04 03:21:41;;;;;;;4.47;1.45;;;;;;;;;;5070954;28;20035;-81
2023/02/04 03:24:06;;;;;;;2.63;1.02;;;;;;;;;;5071363;28;20045;-80
2023/02/04 03:26:32;;;;;;;4.80;1.30;;;;;;;;;;5071835;28;20468;-81
2023/02/04 03:28:58;;;;;;;5.32;1.35;;;;;;;;;;5071478;28;20334;-81
2023/02/04 03:31:23;;;;;;;2.90;1.80;;;;;;;;;;5070316;28;20535;-81
2023/02/04 03:33:48;;;;;;;4.25;1.15;;;;;;;;;;5069519;28;20151;-81
2023/02/04 03:36:13;;;;;;;3.58;1.23;;;;;;;;;;5069233;28;20720;-80
2023/02/04 03:38:38;;;;;;;2.65;1.42;;;;;;;;;;5071081;28;20472;-81
2023/02/04 03:41:04;;;;;;;2.70;1.30;;;;;;;;;;5071075;28;20111;-80
2023/02/04 03:43:29;;;;;;;3.53;1.13;;;;;;;;;;5071319;28;20017;-81
2023/02/04 03:45:54;;;;;;;2.75;1.13;;;;;;;;;;5069614;28;20033;-81
2023/02/04 03:48:19;;;;;;;3.05;1.63;;;;;;;;;;5069822;28;20013;-82
2023/02/04 03:50:44;;;;;;;1.48;1.20;;;;;;;;;;5071046;28;20016;-80
2023/02/04 03:53:10;;;;;;;2.45;1.40;;;;;;;;;;5070046;28;20024;-81
2023/02/04 03:55:35;;;;;;;2.38;1.10;;;;;;;;;;5071334;28;20500;-80
2023/02/04 03:58:01;;;;;;;1.98;0.85;;;;;;;;;;5070393;28;20490;-80
2023/02/04 04:00:26;;;;;;;2.58;1.20;;;;;;;;;;5071026;28;20019;-81
2023/02/04 04:02:52;;;;;;;4.00;1.30;;;;;;;;;;5070806;28;20040;-81
2023/02/04 04:05:17;;;;;;;2.15;1.30;;;;;;;;;;5070933;28;20012;-80
2023/02/04 04:07:42;;;;;;;1.88;0.82;;;;;;;;;;5071079;28;20074;-81
2023/02/04 04:10:07;;;;;;;2.95;1.23;;;;;;;;;;5068824;28;20025;-81
2023/02/04 04:12:33;;;;;;;3.70;1.10;;;;;;;;;;5071703;28;20032;-81
2023/02/04 04:14:58;;;;;;;2.33;1.13;;;;;;;;;;5070951;28;20098;-81
2023/02/04 04:17:23;;;;;;;3.97;1.30;;;;;;;;;;5069818;28;20525;-81
2023/02/04 04:19:48;;;;;;;4.30;1.02;;;;;;;;;;5070797;28;20033;-81
2023/02/04 04:22:13;;;;;;;4.15;1.20;;;;;;;;;;5061996;28;20032;-81
2023/02/04 04:24:39;;;;;;;7.13;1.80;;;;;;;;;;5069531;28;20021;-81
2023/02/04 04:27:04;;;;;;;7.80;1.40;;;;;;;;;;5070594;28;20017;-81
2023/02/04 04:29:29;;;;;;;5.53;1.23;;;;;;;;;;5070627;28;20480;-81
2023/02/04 04:31:54;;;;;;;5.23;1.50;;;;;;;;;;5070837;28;20108;-81
2023/02/04 04:34:19;;;;;;;4.35;2.00;;;;;;;;;;5069691;28;20313;-81
2023/02/04 04:36:45;;;;;;;4.20;1.67;;;;;;;;;;5074572;28;20017;-81
2023/02/04 04:39:10;;;;;;;5.38;1.65;;;;;;;;;;5074558;28;20024;-81
2023/02/04 04:41:35;;;;;;;3.42;1.17;;;;;;;;;;5074640;28;20158;-81
2023/02/04 04:44:00;;;;;;;4.32;1.85;;;;;;;;;;5073023;28;20475;-81
2023/02/04 04:46:25;;;;;;;2.72;1.48;;;;;;;;;;5073679;28;20506;-81
2023/02/04 04:48:51;;;;;;;4.13;1.80;;;;;;;;;;5073621;28;20024;-81
2023/02/04 04:51:16;;;;;;;6.03;2.65;;;;;;;;;;5074419;28;20032;-81
2023/02/04 04:53:41;;;;;;;6.93;2.40;;;;;;;;;;5074202;28;20020;-81
2023/02/04 04:56:07;;;;;;;4.38;2.05;;;;;;;;;;5073967;28;20012;-81
2023/02/04 04:58:32;;;;;;;4.45;1.80;;;;;;;;;;5072973;28;20017;-81
2023/02/04 05:00:57;;;;;;;7.57;1.90;;;;;;;;;;5074233;28;20036;-81
2023/02/04 05:03:22;;;;;;;2.88;1.17;;;;;;;;;;5072705;28;20016;-80
2023/02/04 05:05:47;;;;;;;6.45;1.88;;;;;;;;;;5074327;28;20095;-81
2023/02/04 05:08:15;;;;;;;4.77;1.57;;;;;;;;;;5072399;28;20029;-80
2023/02/04 05:10:41;;;;;;;4.13;1.83;;;;;;;;;;5072943;28;20100;-81
2023/02/04 05:13:06;;;;;;;3.15;1.48;;;;;;;;;;5072519;28;20032;-81
2023/02/04 05:15:31;;;;;;;3.33;1.30;;;;;;;;;;5073789;28;20089;-80
2023/02/04 05:17:57;;;;;;;3.57;1.50;;;;;;;;;;5072684;28;20356;-81
2023/02/04 05:20:22;;;;;;;2.17;1.25;;;;;;;;;;5073620;28;20027;-81
2023/02/04 05:22:47;;;;;;;3.38;1.40;;;;;;;;;;5073178;28;20024;-81
2023/02/04 05:25:15;;;;;;;4.50;1.67;;;;;;;;;;5073659;28;20034;-81
2023/02/04 05:27:40;;;;;;;6.53;2.08;;;;;;;;;;5059916;28;20793;-80
2023/02/04 05:30:06;;;;;;;2.83;1.30;;;;;;;;;;5072342;28;20107;-81
2023/02/04 05:32:31;;;;;;;2.03;1.20;;;;;;;;;;5072297;28;20017;-80
2023/02/04 05:34:56;;;;;;;3.33;1.50;;;;;;;;;;5072789;28;20055;-81
2023/02/04 05:37:21;;;;;;;3.25;1.58;;;;;;;;;;5073726;28;20061;-81
2023/02/04 05:39:46;;;;;;;3.97;1.23;;;;;;;;;;5073776;28;20030;-80
2023/02/04 05:42:12;;;;;;;2.38;1.20;;;;;;;;;;5073660;28;20082;-81
2023/02/04 05:44:37;;;;;;;3.00;1.10;;;;;;;;;;5069503;28;20337;-81
2023/02/04 05:47:02;;;;;;;4.82;1.40;;;;;;;;;;5063227;28;20051;-81
2023/02/04 05:49:27;;;;;;;4.60;1.58;;;;;;;;;;5073126;28;20111;-81
2023/02/04 05:51:53;;;;;;;3.00;1.75;;;;;;;;;;5072428;28;20024;-81
2023/02/04 05:54:19;;;;;;;2.80;1.38;;;;;;;;;;5073046;28;20017;-81
2023/02/04 05:56:45;;;;;;;4.38;1.60;;;;;;;;;;5071767;28;20099;-81
2023/02/04 05:59:10;;;;;;;2.83;1.20;;;;;;;;;;5071641;28;20774;-81
2023/02/04 06:01:35;;;;;;;3.03;1.13;;;;;;;;;;5071105;28;20029;-80
2023/02/04 06:04:00;;;;;;;6.95;1.55;;;;;;;;;;5072633;28;20041;-81
2023/02/04 06:06:26;;;;;;;3.95;1.30;;;;;;;;;;5073133;28;20021;-81
2023/02/04 06:08:51;;;;;;;2.97;1.25;;;;;;;;;;5072589;28;20142;-81
2023/02/04 06:11:16;;;;;;;5.18;1.70;;;;;;;;;;5073052;28;20013;-81
2023/02/04 06:13:41;;;;;;;2.72;1.30;;;;;;;;;;5070254;28;20028;-81
2023/02/04 06:16:06;;;;;;;3.80;1.58;;;;;;;;;;5072949;28;20087;-81
2023/02/04 06:18:32;;;;;;;3.08;1.50;;;;;;;;;;5072570;28;20021;-81
2023/02/04 06:20:57;;;;;;;6.28;1.40;;;;;;;;;;5072556;28;20077;-81
2023/02/04 06:23:22;;;;;;;4.93;2.20;;;;;;;;;;5071560;28;20536;-81
2023/02/04 06:25:49;;;;;;;3.10;1.35;;;;;;;;;;5071875;28;20020;-81
2023/02/04 06:28:14;;;;;;;3.90;1.92;;;;;;;;;;5072460;28;20721;-81
2023/02/04 06:30:39;;;;;;;4.30;2.00;;;;;;;;;;5072495;28;20024;-81
2023/02/04 06:33:04;;;;;;;5.20;1.67;;;;;;;;;;5072934;28;20468;-81
2023/02/04 06:35:29;;;;;;;4.20;1.52;;;;;;;;;;5072349;28;20024;-81
2023/02/04 06:37:55;;;;;;;9.93;2.50;;;;;;;;;;5071912;28;20024;-81
2023/02/04 06:40:20;;;;;;;6.03;2.23;;;;;;;;;;5071186;28;20021;-81
2023/02/04 06:42:45;;;;;;;5.88;2.05;;;;;;;;;;5072524;28;20020;-81
2023/02/04 06:45:10;;;;;;;6.00;1.92;;;;;;;;;;5072077;28;20077;-81
2023/02/04 06:47:36;;;;;;;6.63;2.28;;;;;;;;;;5072295;28;20077;-81
2023/02/04 06:50:01;;;;;;;4.68;2.15;;;;;;;;;;5069632;28;20043;-81
2023/02/04 06:52:26;;;;;;;4.40;1.70;;;;;;;;;;5070331;28;20108;-81
2023/02/04 06:54:51;;;;;;;5.80;1.93;;;;;;;;;;5071770;28;20047;-81
2023/02/04 06:57:16;;;;;;;5.68;1.90;;;;;;;;;;5072318;28;20020;-81
2023/02/04 06:59:42;;;;;;;3.70;1.70;;;;;;;;;;5071663;28;20383;-81
2023/02/04 07:02:09;;;;;;;10.30;2.47;;;;;;;;;;5071189;28;20038;-81
2023/02/04 07:04:35;;;;;;;4.45;2.13;;;;;;;;;;5072203;28;20028;-81
2023/02/04 07:07:00;;;;;;;4.80;1.80;;;;;;;;;;5071968;28;20016;-81
2023/02/04 07:09:26;;;;;;;3.60;1.88;;;;;;;;;;5069788;28;20021;-80
2023/02/04 07:11:51;;;;;;;5.40;1.48;;;;;;;;;;5071714;28;20017;-81
2023/02/04 07:14:17;;;;;;;8.23;1.60;;;;;;;;;;5070946;28;20586;-81
2023/02/04 07:16:43;;;;;;;4.75;2.10;;;;;;;;;;5071111;28;20025;-81
2023/02/04 07:19:08;;;;;;;6.03;1.92;;;;;;;;;;5071381;28;20100;-81
2023/02/04 07:21:33;;;;;;;5.53;2.10;;;;;;;;;;5069961;28;20468;-81
2023/02/04 07:23:58;;;;;;;3.28;1.48;;;;;;;;;;5071206;28;20052;-81
2023/02/04 07:26:23;;;;;;;6.65;1.80;;;;;;;;;;5070060;28;20008;-81
2023/02/04 07:28:48;;;;;;;6.07;2.37;;;;;;;;;;5071289;28;20055;-81
2023/02/04 07:31:14;;;;;;;4.83;2.00;;;;;;;;;;5070893;28;20480;-81
2023/02/04 07:33:39;;;;;;;7.20;1.97;;;;;;;;;;5071373;28;20869;-81
2023/02/04 07:36:04;;;;;;;4.35;2.25;;;;;;;;;;5069205;28;20019;-81
2023/02/04 07:38:30;;;;;;;4.20;1.70;;;;;;;;;;5069996;28;20056;-81
2023/02/04 07:40:55;;;;;;;5.47;1.88;;;;;;;;;;5071194;28;20020;-81
2023/02/04 07:43:20;;;;;;;4.43;1.77;;;;;;;;;;5071409;28;20024;-81
2023/02/04 07:45:45;;;;;;;4.03;1.63;;;;;;;;;;5067420;28;20025;-81
2023/02/04 07:48:10;;;;;;;4.53;1.70;;;;;;;;;;5070415;28;20073;-81
2023/02/04 07:50:36;;;;;;;7.20;1.70;;;;;;;;;;5070517;28;20020;-81
2023/02/04 07:53:01;;;;;;;3.47;1.60;;;;;;;;;;5071107;28;20388;-81
2023/02/04 07:55:27;;;;;;;3.58;1.73;;;;;;;;;;5071198;28;20023;-81
2023/02/04 07:57:52;;;;;;;3.53;1.67;;;;;;;;;;5071224;28;20024;-81
2023/02/04 08:00:18;;;;;;;5.40;2.38;;;;;;;;;;5068395;28;20024;-81
2023/02/04 08:02:43;;;;;;;4.43;2.03;;;;;;;;;;5071203;28;20367;-81
2023/02/04 08:05:08;;;;;;;7.43;2.22;;;;;;;;;;5070985;28;20112;-81
2023/02/04 08:07:34;;;;;;;5.43;2.30;;;;;;;;;;5070294;28;20062;-80
2023/02/04 08:09:59;;;;;;;6.13;1.92;;;;;;;;;;5069092;28;20025;-80
2023/02/04 08:12:24;;;;;;;4.70;2.08;;;;;;;;;;5074584;28;20012;-80
2023/02/04 08:14:49;;;;;;;4.78;1.95;;;;;;;;;;5074337;28;20087;-81
2023/02/04 08:17:14;;;;;;;5.82;2.40;;;;;;;;;;5074450;28;20023;-81
2023/02/04 08:19:40;;;;;;;5.13;2.45;;;;;;;;;;5071236;28;20032;-80
2023/02/04 08:22:05;;;;;;;9.13;2.42;;;;;;;;;;5073420;28;20017;-80
2023/02/04 08:24:30;;;;;;;8.05;3.08;;;;;;;;;;5074947;28;20471;-80
2023/02/04 08:26:57;;;;;;;6.28;2.10;;;;;;;;;;5073417;28;20436;-80
2023/02/04 08:29:22;;;;;;;6.70;2.58;;;;;;;;;;5072134;28;20039;-80
2023/02/04 08:31:47;;;;;;;9.88;2.83;;;;;;;;;;5069133;28;20021;-80
2023/02/04 08:34:12;;;;;;;6.25;2.53;;;;;;;;;;5070956;28;20034;-80
2023/02/04 08:36:38;;;;;;;9.88;4.20;;;;;;;;;;5074941;28;20043;-81
2023/02/04 08:39:03;;;;;;;12.35;3.70;;;;;;;;;;5074711;28;20407;-81
2023/02/04 08:41:28;;;;;;;11.38;4.32;;;;;;;;;;5068196;28;20028;-81
2023/02/04 08:43:53;;;;;;;8.63;2.88;;;;;;;;;;5068330;28;20390;-80
2023/02/04 08:46:19;;;;;;;7.40;2.70;;;;;;;;;;5066976;28;20074;-81
2023/02/04 08:48:44;;;;;;;10.27;3.75;;;;;;;;;;5069918;28;20872;-81
2023/02/04 08:51:09;;;;;;;9.15;3.20;;;;;;;;;;5074155;28;20032;-81
2023/02/04 08:53:34;;;;;;;11.48;3.47;;;;;;;;;;5073799;28;20514;-81
2023/02/04 08:56:00;;;;;;;10.02;3.40;;;;;;;;;;5069950;28;20058;-81
2023/02/04 08:58:25;;;;;;;9.93;3.17;;;;;;;;;;5072221;28;20024;-81
2023/02/04 09:00:50;;;;;;;10.48;2.58;;;;;;;;;;5072431;28;20020;-80
2023/02/04 09:03:15;;;;;;;7.60;2.97;;;;;;;;;;5073807;28;20024;-80
2023/02/04 09:05:44;;;;;;;5.68;2.35;;;;;;;;;;5074153;28;20056;-81
2023/02/04 09:08:09;;;;;;;6.32;2.75;;;;;;;;;;5070642;28;20032;-81
2023/02/04 09:10:34;;;;;;;8.13;2.80;;;;;;;;;;5072253;28;20029;-80
2023/02/04 09:12:59;;;;;;;11.88;3.88;;;;;;;;;;5070421;28;20036;-80
2023/02/04 09:15:24;;;;;;;12.75;3.67;;;;;;;;;;5073995;28;20027;-85
2023/02/04 09:17:54;;;;;;;11.18;3.50;;;;;;;;;;5072621;28;20020;-83
2023/02/04 09:20:20;;;;;;;13.88;3.92;;;;;;;;;;5073235;28;20063;-84
2023/02/04 09:22:46;;;;;;;13.00;4.38;;;;;;;;;;5068037;28;20037;-84
2023/02/04 09:25:12;;;;;;;16.65;4.10;;;;;;;;;;5070669;28;20029;-84
2023/02/04 09:27:37;;;;;;;8.68;3.30;;;;;;;;;;5072579;28;20020;-85
2023/02/04 09:30:02;;;;;;;10.77;3.47;;;;;;;;;;5072837;28;20471;-85
2023/02/04 09:32:27;;;;;;;11.52;3.70;;;;;;;;;;5071389;28;20115;-83
2023/02/04 09:34:52;;;;;;;12.45;3.55;;;;;;;;;;5066948;28;20013;-84
2023/02/04 09:37:18;;;;;;;6.63;3.05;;;;;;;;;;5073913;28;20104;-84
2023/02/04 09:39:43;;;;;;;11.10;3.78;;;;;;;;;;5071989;28;20447;-84
2023/02/04 09:42:13;;;;;;;12.10;3.78;;;;;;;;;;5066001;28;20025;-84
2023/02/04 09:44:38;;;;;;;11.13;4.53;;;;;;;;;;5067775;28;20021;-84
2023/02/04 09:47:03;;;;;;;10.85;4.47;;;;;;;;;;5063858;28;20483;-84
2023/02/04 09:49:28;;;;;;;11.15;3.53;;;;;;;;;;5071263;28;20120;-84
2023/02/04 09:51:54;;;;;;;15.35;5.25;;;;;;;;;;5071080;28;20013;-83
2023/02/04 09:54:20;;;;;;;13.35;4.28;;;;;;;;;;5063524;28;21366;-85
2023/02/04 09:56:46;;;;;;;5.75;2.83;;;;;;;;;;5070593;28;20358;-84
2023/02/04 09:59:12;;;;;;;9.90;4.25;;;;;;;;;;5069578;28;20086;-85
2023/02/04 10:01:37;;;;;;;9.38;4.13;;;;;;;;;;5071505;28;20081;-84
2023/02/04 10:04:03;;;;;;;10.38;4.35;;;;;;;;;;5070504;28;20025;-84
2023/02/04 10:06:28;;;;;;;13.35;4.28;;;;;;;;;;5068588;28;20544;-85
2023/02/04 10:08:54;;;;;;;9.05;3.53;;;;;;;;;;5070859;28;20029;-84
2023/02/04 10:11:21;;;;;;;13.88;4.20;;;;;;;;;;5071506;28;20020;-85
2023/02/04 10:13:50;;;;;;;5.72;2.88;;;;;;;;;;5072835;28;20487;-84
2023/02/04 10:16:20;;;;;;;15.30;4.15;;;;;;;;;;5069881;28;20055;-84
2023/02/04 10:18:46;;;;;;;10.27;4.07;;;;;;;;;;5071785;28;20394;-84
2023/02/04 10:21:13;;;;;;;9.18;3.53;;;;;;;;;;5072625;28;20035;-84
2023/02/04 10:23:39;;;;;;;13.45;4.32;;;;;;;;;;5072726;28;20056;-84
2023/02/04 10:26:04;;;;;;;9.55;3.92;;;;;;;;;;5071183;28;20076;-84
2023/02/04 10:28:36;;;;;;;15.13;3.80;;;;;;;;;;5072468;28;20094;-85
2023/02/04 10:31:01;;;;;;;9.85;3.25;;;;;;;;;;5072825;28;20019;-84
2023/02/04 10:33:26;;;;;;;9.38;3.40;;;;;;;;;;5069199;28;20464;-84
2023/02/04 10:35:53;;;;;;;9.63;3.97;;;;;;;;;;5071178;28;20448;-84
2023/02/04 10:38:18;;;;;;;7.53;3.40;;;;;;;;;;5072585;28;20017;-85
2023/02/04 10:40:45;;;;;;;8.73;3.65;;;;;;;;;;5071388;28;20111;-84
2023/02/04 10:43:15;;;;;;;8.45;3.80;;;;;;;;;;5070352;28;20467;-84
2023/02/04 10:46:07;;;;;;;10.50;2.85;;;;;;;;;;5065792;28;20025;-84
2023/02/04 10:48:39;;;;;;;10.32;4.30;;;;;;;;;;5068797;28;20547;-85
2023/02/04 10:51:04;;;;;;;12.35;4.07;;;;;;;;;;5072379;28;20035;-84
2023/02/04 10:56:18;;;;;;;11.45;3.85;;;;;;;;;;5071512;28;20078;-85
2023/02/04 10:58:44;;;;;;;12.27;3.38;;;;;;;;;;5066954;28;20035;-84
2023/02/04 11:01:14;;;;;;;9.35;3.67;;;;;;;;;;5072254;28;20020;-83
2023/02/04 11:03:39;;;;;;;15.30;4.07;;;;;;;;;;5068251;28;20476;-85
2023/02/04 11:06:23;;;;;;;12.98;4.38;;;;;;;;;;5069066;28;20024;-85
2023/02/04 11:08:52;;;;;;;17.85;4.40;;;;;;;;;;5066496;28;20088;-84
2023/02/04 11:11:18;;;;;;;11.25;3.78;;;;;;;;;;5069238;28;20051;-84
2023/02/04 11:13:55;;;;;;;10.98;3.55;;;;;;;;;;5070121;28;20389;-84
2023/02/04 11:16:26;;;;;;;9.10;3.55;;;;;;;;;;5071143;28;20021;-84
2023/02/04 11:18:55;;;;;;;11.88;3.75;;;;;;;;;;5066830;28;20114;-84
2023/02/04 11:21:23;;;;;;;9.70;3.58;;;;;;;;;;5065767;28;20031;-84
2023/02/04 11:23:49;;;;;;;10.63;3.35;;;;;;;;;;5069502;28;20024;-84
2023/02/04 11:26:18;;;;;;;10.38;3.50;;;;;;;;;;5069703;28;20028;-84
2023/02/04 11:28:43;;;;;;;7.43;3.10;;;;;;;;;;5070887;28;20021;-84
2023/02/04 11:31:13;;;;;;;11.10;3.65;;;;;;;;;;5070916;28;20478;-86
2023/02/04 11:33:40;;;;;;;10.75;4.13;;;;;;;;;;5067915;28;20529;-85
2023/02/04 11:36:07;;;;;;;11.68;4.22;;;;;;;;;;5068428;28;20129;-85
2023/02/04 11:38:32;;;;;;;7.63;3.30;;;;;;;;;;5070321;28;20024;-85
2023/02/04 11:40:58;;;;;;;11.30;3.10;;;;;;;;;;5075264;28;20451;-85
2023/02/04 11:43:25;;;;;;;10.07;3.38;;;;;;;;;;5063345;28;20090;-85
2023/02/04 11:45:59;;;;;;;10.48;3.55;;;;;;;;;;5064178;28;20066;-85
2023/02/04 11:48:25;;;;;;;12.55;3.17;;;;;;;;;;5062326;28;20415;-85
2023/02/04 11:50:54;;;;;;;9.70;3.22;;;;;;;;;;5071576;28;20013;-85
2023/02/04 11:53:22;;;;;;;7.55;2.42;;;;;;;;;;5067232;28;20020;-84
2023/02/04 11:55:47;;;;;;;10.75;2.38;;;;;;;;;;5069105;28;20025;-84
2023/02/04 11:58:14;;;;;;;7.32;2.13;;;;;;;;;;5069740;28;20531;-84
2023/02/04 12:00:41;;;;;;;9.80;3.35;;;;;;;;;;5068538;28;20033;-84
2023/02/04 12:03:19;;;;;;;8.73;3.08;;;;;;;;;;5069188;28;20036;-84
2023/02/04 12:05:46;;;;;;;6.20;2.60;;;;;;;;;;5057923;28;20067;-84
2023/02/04 12:08:20;;;;;;;9.85;2.33;;;;;;;;;;5068807;28;20119;-84
2023/02/04 12:10:59;;;;;;;4.35;1.98;;;;;;;;;;5070229;28;20135;-84
2023/02/04 12:13:24;;;;;;;8.27;2.60;;;;;;;;;;5067363;28;21235;-84
2023/02/04 12:16:06;;;;;;;7.90;3.05;;;;;;;;;;5066374;28;20017;-84
2023/02/04 12:18:32;;;;;;;7.40;3.17;;;;;;;;;;5069152;28;20032;-84
2023/02/04 12:20:58;;;;;;;6.32;2.58;;;;;;;;;;5070597;28;20025;-84
2023/02/04 12:23:24;;;;;;;9.23;3.22;;;;;;;;;;5070657;28;20107;-85
2023/02/04 12:25:49;;;;;;;16.60;4.90;;;;;;;;;;5067175;28;20037;-85
2023/02/04 12:28:14;;;;;;;12.07;3.83;;;;;;;;;;5067047;28;20056;-85
2023/02/04 12:30:40;;;;;;;12.13;4.00;;;;;;;;;;5070654;28;20085;-84
2023/02/04 12:33:06;;;;;;;9.80;3.88;;;;;;;;;;5069447;28;20021;-84
2023/02/04 12:35:31;;;;;;;11.63;4.55;;;;;;;;;;5069846;28;20024;-84
2023/02/04 12:37:56;;;;;;;19.60;6.22;;;;;;;;;;5065949;28;20028;-85
2023/02/04 12:40:22;;;;;;;12.45;3.67;;;;;;;;;;5067625;28;20032;-84
2023/02/04 12:42:47;;;;;;;8.32;2.85;;;;;;;;;;5069725;28;20029;-85
2023/02/04 12:45:13;;;;;;;11.23;4.15;;;;;;;;;;5070560;28;20023;-85
2023/02/04 12:47:38;;;;;;;10.80;3.85;;;;;;;;;;5069118;28;20025;-85
2023/02/04 12:50:04;;;;;;;7.53;3.05;;;;;;;;;;5070289;28;20023;-85
2023/02/04 12:52:30;;;;;;;11.70;3.88;;;;;;;;;;5071507;28;20024;-84
2023/02/04 12:54:55;;;;;;;10.93;3.28;;;;;;;;;;5069052;28;20016;-85
2023/02/04 12:57:20;;;;;;;10.43;3.20;;;;;;;;;;5073340;28;20012;-85
2023/02/04 12:59:46;;;;;;;11.35;3.28;;;;;;;;;;5072637;28;20068;-85
2023/02/04 13:02:11;;;;;;;11.95;3.60;;;;;;;;;;5073318;28;20510;-85
2023/02/04 13:04:36;;;;;;;13.63;3.83;;;;;;;;;;5072838;28;20441;-84
2023/02/04 13:07:02;;;;;;;13.32;4.20;;;;;;;;;;5074402;28;20012;-85
2023/02/04 13:09:27;;;;;;;15.00;4.72;;;;;;;;;;5071886;28;20021;-84
2023/02/04 13:11:52;;;;;;;15.13;4.30;;;;;;;;;;5071742;28;20035;-85
2023/02/04 13:14:17;;;;;;;8.50;3.38;;;;;;;;;;5068688;28;20021;-84
2023/02/04 13:16:42;;;;;;;9.82;3.30;;;;;;;;;;5073703;28;20016;-84
2023/02/04 13:19:08;;;;;;;9.73;3.42;;;;;;;;;;5067864;28;20029;-85
2023/02/04 13:21:33;;;;;;;12.95;3.63;;;;;;;;;;5073350;28;20376;-85
2023/02/04 13:23:58;;;;;;;9.07;3.55;;;;;;;;;;5072316;28;20016;-85
2023/02/04 13:26:23;;;;;;;7.18;3.10;;;;;;;;;;5073921;28;20021;-85
2023/02/04 13:28:49;;;;;;;17.38;3.55;;;;;;;;;;5077760;28;20462;-84
2023/02/04 13:31:14;;;;;;;7.82;2.95;;;;;;;;;;5073656;28;20012;-85
2023/02/04 13:33:39;;;;;;;6.40;2.80;;;;;;;;;;5073568;28;20070;-85
2023/02/04 13:36:05;;;;;;;6.80;2.92;;;;;;;;;;5069284;28;20090;-84
2023/02/04 13:38:30;;;;;;;7.57;3.08;;;;;;;;;;5071363;28;20035;-85
2023/02/04 13:40:55;;;;;;;8.20;3.08;;;;;;;;;;5073394;28;20012;-84
2023/02/04 13:43:20;;;;;;;5.85;3.05;;;;;;;;;;5073716;28;20096;-85
2023/02/04 13:45:47;;;;;;;6.30;2.80;;;;;;;;;;5061171;28;20569;-85
2023/02/04 13:48:13;;;;;;;9.15;3.95;;;;;;;;;;5072351;28;20028;-85
2023/02/04 13:50:38;;;;;;;12.20;3.65;;;;;;;;;;5071468;28;20157;-85
2023/02/04 13:53:03;;;;;;;11.95;3.30;;;;;;;;;;5073334;28;20013;-85
2023/02/04 13:55:28;;;;;;;10.48;3.25;;;;;;;;;;5073308;28;20020;-85
2023/02/04 13:57:54;;;;;;;10.02;3.08;;;;;;;;;;5073426;28;20027;-85
2023/02/04 14:00:19;;;;;;;4.85;2.40;;;;;;;;;;5070585;28;20407;-85
2023/02/04 14:02:44;;;;;;;6.05;2.28;;;;;;;;;;5072624;28;20024;-85
2023/02/04 14:05:09;;;;;;;9.48;2.53;;;;;;;;;;5073209;28;20016;-85
2023/02/04 14:07:35;;;;;;;5.93;2.88;;;;;;;;;;5070870;28;20012;-85
2023/02/04 14:10:00;;;;;;;10.77;3.40;;;;;;;;;;5068756;28;20460;-85
2023/02/04 14:12:25;;;;;;;7.90;2.83;;;;;;;;;;5072951;28;20095;-84
2023/02/04 14:14:50;;;;;;;11.27;2.95;;;;;;;;;;5071534;28;20027;-85
2023/02/04 14:17:15;;;;;;;7.47;2.55;;;;;;;;;;5070247;28;20478;-84
2023/02/04 14:19:40;;;;;;;5.88;2.10;;;;;;;;;;5072348;28;20090;-85
2023/02/04 14:22:06;;;;;;;8.18;2.85;;;;;;;;;;5070459;28;20480;-84
2023/02/04 14:24:32;;;;;;;4.70;2.63;;;;;;;;;;5070644;28;20097;-85
2023/02/04 14:26:57;;;;;;;5.68;2.47;;;;;;;;;;5070992;28;20021;-85
2023/02/04 14:29:22;;;;;;;6.00;3.20;;;;;;;;;;5071394;28;20111;-85
2023/02/04 14:31:48;;;;;;;7.68;2.60;;;;;;;;;;5072804;28;20022;-85
2023/02/04 14:34:14;;;;;;;9.73;2.30;;;;;;;;;;5071880;28;20087;-85